Odessa, Odessa Schlemeyer Field (KODO)

NameOdessa Schlemeyer Field
CityOdessa
CountryUnited States
ICAOKODO
IATA
Altitude916 m
CoordinatesGoogle Map
Live Air TrafficLiveATC.net
METARKODO 170253Z AUTO 18009KT 10SM CLR 12/M04 A3006 RMK AO2 SLP161 T01171039 50006
2018-11-17 02:53:00 Wind: South (180°) 4.63 m/s - Visibility: 16093.4 m - Temperature: 12 °C - Dew point: -4 °C - Humidity: 32.7% - Pressure: 1017.95 hPa
Statistics

The table below shows the detailed information of all flights to/from Odessa, Odessa Schlemeyer Field (KODO).